sensor_id;sensor_type;location;lat;lon;timestamp;temperature;humidity
5476;DHT22;2760;50.000;9.194;2023-05-07T00:01:32;15.20;99.90
5476;DHT22;2760;50.000;9.194;2023-05-07T00:08:57;15.30;99.90
5476;DHT22;2760;50.000;9.194;2023-05-07T00:13:53;15.30;99.90
5476;DHT22;2760;50.000;9.194;2023-05-07T00:16:20;15.20;99.90
5476;DHT22;2760;50.000;9.194;2023-05-07T00:18:47;15.40;99.90
5476;DHT22;2760;50.000;9.194;2023-05-07T00:21:14;16.10;99.90
5476;DHT22;2760;50.000;9.194;2023-05-07T00:23:41;15.50;99.90
5476;DHT22;2760;50.000;9.194;2023-05-07T00:26:10;15.60;99.90
5476;DHT22;2760;50.000;9.194;2023-05-07T00:28:39;15.60;99.90
5476;DHT22;2760;50.000;9.194;2023-05-07T00:33:33;15.70;99.90
5476;DHT22;2760;50.000;9.194;2023-05-07T00:38:28;15.60;99.90
5476;DHT22;2760;50.000;9.194;2023-05-07T00:40:55;15.60;99.90
5476;DHT22;2760;50.000;9.194;2023-05-07T00:43:24;16.20;99.90
5476;DHT22;2760;50.000;9.194;2023-05-07T00:45:51;15.50;99.90
5476;DHT22;2760;50.000;9.194;2023-05-07T00:48:18;15.60;99.90
5476;DHT22;2760;50.000;9.194;2023-05-07T00:50:46;15.60;99.90
5476;DHT22;2760;50.000;9.194;2023-05-07T00:53:16;15.40;99.90
5476;DHT22;2760;50.000;9.194;2023-05-07T00:55:43;15.50;99.90
5476;DHT22;2760;50.000;9.194;2023-05-07T01:00:39;15.70;99.90
5476;DHT22;2760;50.000;9.194;2023-05-07T01:03:08;15.80;99.90
5476;DHT22;2760;50.000;9.194;2023-05-07T01:05:35;15.50;99.90
5476;DHT22;2760;50.000;9.194;2023-05-07T01:08:03;15.50;99.90
5476;DHT22;2760;50.000;9.194;2023-05-07T01:10:31;15.50;99.90
5476;DHT22;2760;50.000;9.194;2023-05-07T01:12:59;15.40;99.90
5476;DHT22;2760;50.000;9.194;2023-05-07T01:15:26;15.60;99.90
5476;DHT22;2760;50.000;9.194;2023-05-07T01:17:55;15.60;99.90
5476;DHT22;2760;50.000;9.194;2023-05-07T01:20:30;15.70;99.90
5476;DHT22;2760;50.000;9.194;2023-05-07T01:23:01;15.70;99.90
5476;DHT22;2760;50.000;9.194;2023-05-07T01:25:29;15.70;99.90
5476;DHT22;2760;50.000;9.194;2023-05-07T01:28:00;15.50;99.90
5476;DHT22;2760;50.000;9.194;2023-05-07T01:30:33;15.60;99.90
5476;DHT22;2760;50.000;9.194;2023-05-07T01:33:07;15.70;99.90
5476;DHT22;2760;50.000;9.194;2023-05-07T01:35:40;15.70;99.90
5476;DHT22;2760;50.000;9.194;2023-05-07T01:38:10;15.70;99.90
5476;DHT22;2760;50.000;9.194;2023-05-07T01:40:38;15.70;99.90
5476;DHT22;2760;50.000;9.194;2023-05-07T01:43:06;15.70;99.90
5476;DHT22;2760;50.000;9.194;2023-05-07T01:45:35;15.70;99.90
5476;DHT22;2760;50.000;9.194;2023-05-07T01:48:03;15.70;99.90
5476;DHT22;2760;50.000;9.194;2023-05-07T01:50:32;15.80;99.90
5476;DHT22;2760;50.000;9.194;2023-05-07T01:52:59;16.60;99.90
5476;DHT22;2760;50.000;9.194;2023-05-07T01:55:27;15.40;99.90
5476;DHT22;2760;50.000;9.194;2023-05-07T01:57:55;15.70;99.90
5476;DHT22;2760;50.000;9.194;2023-05-07T02:00:22;15.70;99.90
5476;DHT22;2760;50.000;9.194;2023-05-07T02:02:49;15.70;99.90
5476;DHT22;2760;50.000;9.194;2023-05-07T02:05:33;15.70;99.90
5476;DHT22;2760;50.000;9.194;2023-05-07T02:08:06;15.70;99.90
5476;DHT22;2760;50.000;9.194;2023-05-07T02:10:35;15.70;99.90
5476;DHT22;2760;50.000;9.194;2023-05-07T02:13:05;15.90;99.90
5476;DHT22;2760;50.000;9.194;2023-05-07T02:15:32;15.80;99.90
5476;DHT22;2760;50.000;9.194;2023-05-07T02:18:03;15.90;99.90
5476;DHT22;2760;50.000;9.194;2023-05-07T02:20:31;15.90;99.90
5476;DHT22;2760;50.000;9.194;2023-05-07T02:22:59;15.90;99.90
5476;DHT22;2760;50.000;9.194;2023-05-07T02:25:28;16.00;99.90
5476;DHT22;2760;50.000;9.194;2023-05-07T02:27:57;15.90;99.90
5476;DHT22;2760;50.000;9.194;2023-05-07T02:30:38;16.50;99.90
5476;DHT22;2760;50.000;9.194;2023-05-07T02:33:06;15.90;99.90
5476;DHT22;2760;50.000;9.194;2023-05-07T02:35:34;15.90;99.90
5476;DHT22;2760;50.000;9.194;2023-05-07T02:40:28;15.90;99.90
5476;DHT22;2760;50.000;9.194;2023-05-07T02:43:00;14.60;99.90
5476;DHT22;2760;50.000;9.194;2023-05-07T02:45:28;15.90;99.90
5476;DHT22;2760;50.000;9.194;2023-05-07T02:47:56;17.80;99.90
5476;DHT22;2760;50.000;9.194;2023-05-07T02:50:23;15.90;99.90
5476;DHT22;2760;50.000;9.194;2023-05-07T02:52:53;16.00;99.90
5476;DHT22;2760;50.000;9.194;2023-05-07T02:55:20;16.10;99.90
5476;DHT22;2760;50.000;9.194;2023-05-07T02:57:47;16.10;99.90
5476;DHT22;2760;50.000;9.194;2023-05-07T03:00:18;16.10;99.90
5476;DHT22;2760;50.000;9.194;2023-05-07T03:03:02;16.00;99.90
5476;DHT22;2760;50.000;9.194;2023-05-07T03:05:29;16.00;99.90
5476;DHT22;2760;50.000;9.194;2023-05-07T03:07:56;16.00;99.90
5476;DHT22;2760;50.000;9.194;2023-05-07T03:10:23;15.90;99.90
5476;DHT22;2760;50.000;9.194;2023-05-07T03:12:50;15.90;99.90
5476;DHT22;2760;50.000;9.194;2023-05-07T03:15:19;15.90;99.90
5476;DHT22;2760;50.000;9.194;2023-05-07T03:17:47;16.00;99.90
5476;DHT22;2760;50.000;9.194;2023-05-07T03:20:14;16.00;99.90
5476;DHT22;2760;50.000;9.194;2023-05-07T03:22:41;15.90;99.90
5476;DHT22;2760;50.000;9.194;2023-05-07T03:25:09;16.00;99.90
5476;DHT22;2760;50.000;9.194;2023-05-07T03:27:36;15.90;99.90
5476;DHT22;2760;50.000;9.194;2023-05-07T03:30:05;16.00;99.90
5476;DHT22;2760;50.000;9.194;2023-05-07T03:32:34;15.90;99.90
5476;DHT22;2760;50.000;9.194;2023-05-07T03:35:06;15.90;99.90
5476;DHT22;2760;50.000;9.194;2023-05-07T03:37:33;16.00;99.90
5476;DHT22;2760;50.000;9.194;2023-05-07T03:40:00;16.60;99.90
5476;DHT22;2760;50.000;9.194;2023-05-07T03:42:31;17.30;99.90
5476;DHT22;2760;50.000;9.194;2023-05-07T03:44:58;16.10;99.90
5476;DHT22;2760;50.000;9.194;2023-05-07T03:47:26;16.10;99.90
5476;DHT22;2760;50.000;9.194;2023-05-07T03:49:55;16.10;99.90
5476;DHT22;2760;50.000;9.194;2023-05-07T03:52:24;16.10;99.90
5476;DHT22;2760;50.000;9.194;2023-05-07T03:54:53;16.00;99.90
5476;DHT22;2760;50.000;9.194;2023-05-07T03:57:21;16.10;99.90
5476;DHT22;2760;50.000;9.194;2023-05-07T03:59:48;16.00;99.90
5476;DHT22;2760;50.000;9.194;2023-05-07T04:02:15;16.00;99.90
5476;DHT22;2760;50.000;9.194;2023-05-07T04:04:42;16.00;99.90
5476;DHT22;2760;50.000;9.194;2023-05-07T04:07:17;16.80;99.90
5476;DHT22;2760;50.000;9.194;2023-05-07T04:09:49;16.00;99.90
5476;DHT22;2760;50.000;9.194;2023-05-07T04:12:16;16.00;99.90
5476;DHT22;2760;50.000;9.194;2023-05-07T04:14:43;16.00;99.90
5476;DHT22;2760;50.000;9.194;2023-05-07T04:17:10;15.90;99.90
5476;DHT22;2760;50.000;9.194;2023-05-07T04:19:38;16.20;99.90
5476;DHT22;2760;50.000;9.194;2023-05-07T04:22:05;16.00;99.90
5476;DHT22;2760;50.000;9.194;2023-05-07T04:24:37;15.90;99.90
5476;DHT22;2760;50.000;9.194;2023-05-07T04:27:05;16.00;99.90
5476;DHT22;2760;50.000;9.194;2023-05-07T04:29:32;15.90;99.90
5476;DHT22;2760;50.000;9.194;2023-05-07T04:31:59;16.00;99.90
5476;DHT22;2760;50.000;9.194;2023-05-07T04:34:26;15.80;99.90
5476;DHT22;2760;50.000;9.194;2023-05-07T04:36:54;16.00;99.90
5476;DHT22;2760;50.000;9.194;2023-05-07T04:39:21;16.00;99.90
5476;DHT22;2760;50.000;9.194;2023-05-07T04:41:50;16.10;99.90
5476;DHT22;2760;50.000;9.194;2023-05-07T04:44:17;16.00;99.90
5476;DHT22;2760;50.000;9.194;2023-05-07T04:46:45;15.90;99.90
5476;DHT22;2760;50.000;9.194;2023-05-07T04:49:12;16.00;99.90
5476;DHT22;2760;50.000;9.194;2023-05-07T04:51:39;16.00;99.90
5476;DHT22;2760;50.000;9.194;2023-05-07T04:54:09;16.00;99.90
5476;DHT22;2760;50.000;9.194;2023-05-07T04:56:36;16.00;99.90
5476;DHT22;2760;50.000;9.194;2023-05-07T04:59:04;16.20;99.90
5476;DHT22;2760;50.000;9.194;2023-05-07T05:01:31;17.50;99.90
5476;DHT22;2760;50.000;9.194;2023-05-07T05:03:58;16.00;99.90
5476;DHT22;2760;50.000;9.194;2023-05-07T05:06:26;16.80;99.90
5476;DHT22;2760;50.000;9.194;2023-05-07T05:08:53;16.20;99.90
5476;DHT22;2760;50.000;9.194;2023-05-07T05:11:21;16.00;99.90
5476;DHT22;2760;50.000;9.194;2023-05-07T05:13:49;16.00;99.90
5476;DHT22;2760;50.000;9.194;2023-05-07T05:16:20;16.10;99.90
5476;DHT22;2760;50.000;9.194;2023-05-07T05:18:48;18.20;99.90
5476;DHT22;2760;50.000;9.194;2023-05-07T05:21:18;16.10;99.90
5476;DHT22;2760;50.000;9.194;2023-05-07T05:23:47;16.10;99.90
5476;DHT22;2760;50.000;9.194;2023-05-07T05:26:18;16.20;99.90
5476;DHT22;2760;50.000;9.194;2023-05-07T05:28:46;16.20;99.90
5476;DHT22;2760;50.000;9.194;2023-05-07T05:31:15;16.20;99.90
5476;DHT22;2760;50.000;9.194;2023-05-07T05:33:44;16.30;99.90
5476;DHT22;2760;50.000;9.194;2023-05-07T05:36:11;16.30;99.90
5476;DHT22;2760;50.000;9.194;2023-05-07T05:38:39;16.20;99.90
5476;DHT22;2760;50.000;9.194;2023-05-07T05:41:07;16.30;99.90
5476;DHT22;2760;50.000;9.194;2023-05-07T05:43:34;16.90;99.90
5476;DHT22;2760;50.000;9.194;2023-05-07T05:46:01;17.80;99.90
5476;DHT22;2760;50.000;9.194;2023-05-07T05:48:30;15.00;99.90
5476;DHT22;2760;50.000;9.194;2023-05-07T05:51:01;16.50;99.90
5476;DHT22;2760;50.000;9.194;2023-05-07T05:53:28;16.60;99.90
5476;DHT22;2760;50.000;9.194;2023-05-07T05:55:55;16.60;99.90
5476;DHT22;2760;50.000;9.194;2023-05-07T05:58:22;16.60;99.90
5476;DHT22;2760;50.000;9.194;2023-05-07T06:00:55;16.50;99.90
5476;DHT22;2760;50.000;9.194;2023-05-07T06:03:25;16.50;99.90
5476;DHT22;2760;50.000;9.194;2023-05-07T06:08:23;16.50;99.90
5476;DHT22;2760;50.000;9.194;2023-05-07T06:10:50;16.50;99.90
5476;DHT22;2760;50.000;9.194;2023-05-07T06:13:17;16.60;99.90
5476;DHT22;2760;50.000;9.194;2023-05-07T06:15:45;17.80;99.90
5476;DHT22;2760;50.000;9.194;2023-05-07T06:18:14;16.60;99.90
5476;DHT22;2760;50.000;9.194;2023-05-07T06:20:41;18.20;99.90
5476;DHT22;2760;50.000;9.194;2023-05-07T06:23:14;16.50;99.90
5476;DHT22;2760;50.000;9.194;2023-05-07T06:25:45;17.10;99.90
5476;DHT22;2760;50.000;9.194;2023-05-07T06:28:15;16.50;99.90
5476;DHT22;2760;50.000;9.194;2023-05-07T06:33:10;16.50;99.90
5476;DHT22;2760;50.000;9.194;2023-05-07T06:35:38;16.50;99.90
5476;DHT22;2760;50.000;9.194;2023-05-07T06:38:05;16.50;99.90
5476;DHT22;2760;50.000;9.194;2023-05-07T06:40:32;16.40;99.90
5476;DHT22;2760;50.000;9.194;2023-05-07T06:43:01;16.50;99.90
5476;DHT22;2760;50.000;9.194;2023-05-07T06:45:35;16.50;99.90
5476;DHT22;2760;50.000;9.194;2023-05-07T06:50:37;16.60;99.90
5476;DHT22;2760;50.000;9.194;2023-05-07T06:53:04;16.50;99.90
5476;DHT22;2760;50.000;9.194;2023-05-07T06:55:32;16.70;99.90
5476;DHT22;2760;50.000;9.194;2023-05-07T06:58:01;16.70;99.90
5476;DHT22;2760;50.000;9.194;2023-05-07T07:02:56;16.80;99.90
5476;DHT22;2760;50.000;9.194;2023-05-07T07:05:27;17.10;99.90
5476;DHT22;2760;50.000;9.194;2023-05-07T07:07:54;18.00;99.90
5476;DHT22;2760;50.000;9.194;2023-05-07T07:10:22;16.90;99.90
5476;DHT22;2760;50.000;9.194;2023-05-07T07:12:50;16.90;99.90
5476;DHT22;2760;50.000;9.194;2023-05-07T07:15:20;17.10;99.90
5476;DHT22;2760;50.000;9.194;2023-05-07T07:17:48;17.10;99.90
5476;DHT22;2760;50.000;9.194;2023-05-07T07:22:44;17.20;99.90
5476;DHT22;2760;50.000;9.194;2023-05-07T07:25:11;17.30;99.90
5476;DHT22;2760;50.000;9.194;2023-05-07T07:27:38;17.30;99.90
5476;DHT22;2760;50.000;9.194;2023-05-07T07:30:07;17.30;99.90
5476;DHT22;2760;50.000;9.194;2023-05-07T07:32:38;17.40;99.90
5476;DHT22;2760;50.000;9.194;2023-05-07T07:35:06;17.30;99.90
5476;DHT22;2760;50.000;9.194;2023-05-07T07:37:35;17.30;99.90
5476;DHT22;2760;50.000;9.194;2023-05-07T07:40:02;18.80;99.90
5476;DHT22;2760;50.000;9.194;2023-05-07T07:42:29;17.60;99.90
5476;DHT22;2760;50.000;9.194;2023-05-07T07:44:57;17.60;99.90
5476;DHT22;2760;50.000;9.194;2023-05-07T07:47:27;17.60;99.90
5476;DHT22;2760;50.000;9.194;2023-05-07T07:49:56;17.60;99.90
5476;DHT22;2760;50.000;9.194;2023-05-07T07:52:24;17.70;99.90
5476;DHT22;2760;50.000;9.194;2023-05-07T07:54:51;17.70;99.90
5476;DHT22;2760;50.000;9.194;2023-05-07T07:57:21;17.70;99.90
5476;DHT22;2760;50.000;9.194;2023-05-07T07:59:48;17.70;99.90
5476;DHT22;2760;50.000;9.194;2023-05-07T08:02:34;17.70;99.90
5476;DHT22;2760;50.000;9.194;2023-05-07T08:05:03;17.90;99.90
5476;DHT22;2760;50.000;9.194;2023-05-07T08:07:30;17.80;99.90
5476;DHT22;2760;50.000;9.194;2023-05-07T08:10:00;17.80;99.90
5476;DHT22;2760;50.000;9.194;2023-05-07T08:12:28;17.80;99.90
5476;DHT22;2760;50.000;9.194;2023-05-07T08:14:55;18.00;99.90
5476;DHT22;2760;50.000;9.194;2023-05-07T08:17:22;17.90;99.90
5476;DHT22;2760;50.000;9.194;2023-05-07T08:19:50;18.00;99.90
5476;DHT22;2760;50.000;9.194;2023-05-07T08:22:18;17.90;99.90
5476;DHT22;2760;50.000;9.194;2023-05-07T08:24:45;18.00;99.90
5476;DHT22;2760;50.000;9.194;2023-05-07T08:27:13;18.10;99.90
5476;DHT22;2760;50.000;9.194;2023-05-07T08:29:41;18.20;99.90
5476;DHT22;2760;50.000;9.194;2023-05-07T08:32:13;18.20;99.90
5476;DHT22;2760;50.000;9.194;2023-05-07T08:34:40;18.50;99.90
5476;DHT22;2760;50.000;9.194;2023-05-07T08:37:07;18.40;99.90
5476;DHT22;2760;50.000;9.194;2023-05-07T08:39:36;18.40;99.90
5476;DHT22;2760;50.000;9.194;2023-05-07T08:42:09;18.30;99.90
5476;DHT22;2760;50.000;9.194;2023-05-07T08:44:38;18.60;99.90
5476;DHT22;2760;50.000;9.194;2023-05-07T08:47:07;18.70;99.90
5476;DHT22;2760;50.000;9.194;2023-05-07T08:49:36;18.80;99.90
5476;DHT22;2760;50.000;9.194;2023-05-07T08:52:06;19.00;99.90
5476;DHT22;2760;50.000;9.194;2023-05-07T08:54:33;21.50;99.90
5476;DHT22;2760;50.000;9.194;2023-05-07T08:57:05;19.00;99.90
5476;DHT22;2760;50.000;9.194;2023-05-07T08:59:34;19.10;99.90
5476;DHT22;2760;50.000;9.194;2023-05-07T09:02:03;19.00;99.80
5476;DHT22;2760;50.000;9.194;2023-05-07T09:04:30;19.20;99.90
5476;DHT22;2760;50.000;9.194;2023-05-07T09:06:58;19.20;99.90
5476;DHT22;2760;50.000;9.194;2023-05-07T09:09:32;19.20;99.50
5476;DHT22;2760;50.000;9.194;2023-05-07T09:12:05;19.20;99.80
5476;DHT22;2760;50.000;9.194;2023-05-07T09:14:33;19.60;99.30
5476;DHT22;2760;50.000;9.194;2023-05-07T09:17:02;19.90;99.50
5476;DHT22;2760;50.000;9.194;2023-05-07T09:19:30;20.30;99.80
5476;DHT22;2760;50.000;9.194;2023-05-07T09:22:01;20.30;98.50
5476;DHT22;2760;50.000;9.194;2023-05-07T09:24:35;20.20;98.60
5476;DHT22;2760;50.000;9.194;2023-05-07T09:27:07;20.30;98.50
5476;DHT22;2760;50.000;9.194;2023-05-07T09:29:40;20.10;98.70
5476;DHT22;2760;50.000;9.194;2023-05-07T09:32:08;20.20;98.30
5476;DHT22;2760;50.000;9.194;2023-05-07T09:34:35;20.60;97.90
5476;DHT22;2760;50.000;9.194;2023-05-07T09:37:03;20.80;97.90
5476;DHT22;2760;50.000;9.194;2023-05-07T09:39:39;20.80;98.10
5476;DHT22;2760;50.000;9.194;2023-05-07T09:42:08;21.00;97.90
5476;DHT22;2760;50.000;9.194;2023-05-07T09:44:38;21.10;97.80
5476;DHT22;2760;50.000;9.194;2023-05-07T09:47:10;23.70;98.90
5476;DHT22;2760;50.000;9.194;2023-05-07T09:49:47;21.30;97.00
5476;DHT22;2760;50.000;9.194;2023-05-07T09:52:27;21.70;97.50
5476;DHT22;2760;50.000;9.194;2023-05-07T09:55:02;20.10;96.10
5476;DHT22;2760;50.000;9.194;2023-05-07T09:57:35;21.80;96.90
5476;DHT22;2760;50.000;9.194;2023-05-07T10:00:19;20.50;96.00
5476;DHT22;2760;50.000;9.194;2023-05-07T10:03:00;22.00;96.60
5476;DHT22;2760;50.000;9.194;2023-05-07T10:05:37;22.60;96.90
5476;DHT22;2760;50.000;9.194;2023-05-07T10:08:08;22.60;97.10
5476;DHT22;2760;50.000;9.194;2023-05-07T10:10:40;23.00;96.00
5476;DHT22;2760;50.000;9.194;2023-05-07T10:13:13;23.20;95.80
5476;DHT22;2760;50.000;9.194;2023-05-07T10:15:47;25.10;95.50
5476;DHT22;2760;50.000;9.194;2023-05-07T10:18:15;23.80;94.60
5476;DHT22;2760;50.000;9.194;2023-05-07T10:20:47;23.70;95.50
5476;DHT22;2760;50.000;9.194;2023-05-07T10:23:19;23.80;94.90
5476;DHT22;2760;50.000;9.194;2023-05-07T10:26:01;24.30;94.60
5476;DHT22;2760;50.000;9.194;2023-05-07T10:28:35;24.30;93.90
5476;DHT22;2760;50.000;9.194;2023-05-07T10:31:23;24.10;94.00
5476;DHT22;2760;50.000;9.194;2023-05-07T10:33:55;24.30;93.70
5476;DHT22;2760;50.000;9.194;2023-05-07T10:36:25;23.40;93.60
5476;DHT22;2760;50.000;9.194;2023-05-07T10:39:32;23.00;93.30
5476;DHT22;2760;50.000;9.194;2023-05-07T10:42:08;24.40;93.70
5476;DHT22;2760;50.000;9.194;2023-05-07T10:44:37;24.10;93.20
5476;DHT22;2760;50.000;9.194;2023-05-07T10:47:34;24.30;93.10
5476;DHT22;2760;50.000;9.194;2023-05-07T10:50:20;24.80;92.40
5476;DHT22;2760;50.000;9.194;2023-05-07T10:56:26;25.50;92.40
5476;DHT22;2760;50.000;9.194;2023-05-07T10:59:34;25.50;91.30
5476;DHT22;2760;50.000;9.194;2023-05-07T11:02:17;25.50;92.20
5476;DHT22;2760;50.000;9.194;2023-05-07T11:05:18;26.70;91.30
5476;DHT22;2760;50.000;9.194;2023-05-07T11:07:54;26.30;90.90
5476;DHT22;2760;50.000;9.194;2023-05-07T11:10:23;26.10;90.60
5476;DHT22;2760;50.000;9.194;2023-05-07T11:12:59;25.60;91.20
5476;DHT22;2760;50.000;9.194;2023-05-07T11:15:40;25.30;90.80
5476;DHT22;2760;50.000;9.194;2023-05-07T11:18:20;24.80;91.50
5476;DHT22;2760;50.000;9.194;2023-05-07T11:20:54;24.70;91.80
5476;DHT22;2760;50.000;9.194;2023-05-07T11:24:09;24.40;91.50
5476;DHT22;2760;50.000;9.194;2023-05-07T11:26:51;24.90;91.80
5476;DHT22;2760;50.000;9.194;2023-05-07T11:29:21;25.30;91.70
5476;DHT22;2760;50.000;9.194;2023-05-07T11:31:52;25.40;91.50
5476;DHT22;2760;50.000;9.194;2023-05-07T11:34:23;23.40;90.40
5476;DHT22;2760;50.000;9.194;2023-05-07T11:36:53;25.10;90.90
5476;DHT22;2760;50.000;9.194;2023-05-07T11:39:28;25.30;91.20
5476;DHT22;2760;50.000;9.194;2023-05-07T11:41:55;25.00;90.80
5476;DHT22;2760;50.000;9.194;2023-05-07T11:44:22;25.30;90.80
5476;DHT22;2760;50.000;9.194;2023-05-07T11:46:49;25.30;90.60
5476;DHT22;2760;50.000;9.194;2023-05-07T11:49:17;25.50;90.50
5476;DHT22;2760;50.000;9.194;2023-05-07T11:51:46;25.60;90.90
5476;DHT22;2760;50.000;9.194;2023-05-07T11:54:16;26.20;89.10
5476;DHT22;2760;50.000;9.194;2023-05-07T11:56:44;26.10;86.60
5476;DHT22;2760;50.000;9.194;2023-05-07T11:59:11;26.00;87.50
5476;DHT22;2760;50.000;9.194;2023-05-07T12:01:42;26.00;87.30
5476;DHT22;2760;50.000;9.194;2023-05-07T12:04:11;26.30;88.50
5476;DHT22;2760;50.000;9.194;2023-05-07T12:06:39;27.20;84.80
5476;DHT22;2760;50.000;9.194;2023-05-07T12:09:07;26.80;85.10
5476;DHT22;2760;50.000;9.194;2023-05-07T12:11:37;26.50;86.40
5476;DHT22;2760;50.000;9.194;2023-05-07T12:16:33;27.70;83.30
5476;DHT22;2760;50.000;9.194;2023-05-07T12:19:00;27.20;84.60
5476;DHT22;2760;50.000;9.194;2023-05-07T12:21:27;27.20;84.80
5476;DHT22;2760;50.000;9.194;2023-05-07T12:23:54;26.70;85.00
5476;DHT22;2760;50.000;9.194;2023-05-07T12:26:23;26.20;86.40
5476;DHT22;2760;50.000;9.194;2023-05-07T12:28:51;26.50;86.00
5476;DHT22;2760;50.000;9.194;2023-05-07T12:31:18;26.90;85.90
5476;DHT22;2760;50.000;9.194;2023-05-07T12:33:45;26.50;86.60
5476;DHT22;2760;50.000;9.194;2023-05-07T12:36:13;26.80;86.70
5476;DHT22;2760;50.000;9.194;2023-05-07T12:41:08;26.70;86.50
5476;DHT22;2760;50.000;9.194;2023-05-07T12:43:37;27.10;85.90
5476;DHT22;2760;50.000;9.194;2023-05-07T12:46:05;27.30;83.50
5476;DHT22;2760;50.000;9.194;2023-05-07T12:48:33;26.50;84.70
5476;DHT22;2760;50.000;9.194;2023-05-07T12:51:01;26.30;85.50
5476;DHT22;2760;50.000;9.194;2023-05-07T12:55:58;26.20;85.60
5476;DHT22;2760;50.000;9.194;2023-05-07T12:58:28;26.80;85.80
5476;DHT22;2760;50.000;9.194;2023-05-07T13:00:57;27.10;84.70
5476;DHT22;2760;50.000;9.194;2023-05-07T13:03:27;26.70;85.90
5476;DHT22;2760;50.000;9.194;2023-05-07T13:05:58;26.30;86.30
5476;DHT22;2760;50.000;9.194;2023-05-07T13:08:26;26.60;86.70
5476;DHT22;2760;50.000;9.194;2023-05-07T13:10:54;26.60;87.00
5476;DHT22;2760;50.000;9.194;2023-05-07T13:13:21;26.90;86.70
5476;DHT22;2760;50.000;9.194;2023-05-07T13:15:48;27.20;87.40
5476;DHT22;2760;50.000;9.194;2023-05-07T13:18:17;26.70;88.00
5476;DHT22;2760;50.000;9.194;2023-05-07T13:23:11;26.30;88.30
5476;DHT22;2760;50.000;9.194;2023-05-07T13:25:38;26.10;89.50
5476;DHT22;2760;50.000;9.194;2023-05-07T13:28:05;26.20;88.40
5476;DHT22;2760;50.000;9.194;2023-05-07T13:30:32;26.20;86.80
5476;DHT22;2760;50.000;9.194;2023-05-07T13:32:59;26.30;87.90
5476;DHT22;2760;50.000;9.194;2023-05-07T13:35:28;25.80;87.90
5476;DHT22;2760;50.000;9.194;2023-05-07T13:37:55;26.10;88.00
5476;DHT22;2760;50.000;9.194;2023-05-07T13:40:23;26.20;89.80
5476;DHT22;2760;50.000;9.194;2023-05-07T13:42:50;26.50;86.10
5476;DHT22;2760;50.000;9.194;2023-05-07T13:45:17;26.50;86.50
5476;DHT22;2760;50.000;9.194;2023-05-07T13:47:44;26.50;87.00
5476;DHT22;2760;50.000;9.194;2023-05-07T13:50:12;26.00;87.40
5476;DHT22;2760;50.000;9.194;2023-05-07T13:52:43;25.90;87.90
5476;DHT22;2760;50.000;9.194;2023-05-07T13:55:16;25.30;88.40
5476;DHT22;2760;50.000;9.194;2023-05-07T13:57:43;25.30;88.50
5476;DHT22;2760;50.000;9.194;2023-05-07T14:00:11;25.60;87.80
5476;DHT22;2760;50.000;9.194;2023-05-07T14:02:41;25.80;87.60
5476;DHT22;2760;50.000;9.194;2023-05-07T14:05:08;26.00;87.30
5476;DHT22;2760;50.000;9.194;2023-05-07T14:07:36;25.90;87.30
5476;DHT22;2760;50.000;9.194;2023-05-07T14:10:05;23.30;84.70
5476;DHT22;2760;50.000;9.194;2023-05-07T14:15:00;25.30;88.00
5476;DHT22;2760;50.000;9.194;2023-05-07T14:17:27;25.20;88.60
5476;DHT22;2760;50.000;9.194;2023-05-07T14:19:54;25.40;88.90
5476;DHT22;2760;50.000;9.194;2023-05-07T14:22:21;25.40;87.80
5476;DHT22;2760;50.000;9.194;2023-05-07T14:24:49;25.50;88.80
5476;DHT22;2760;50.000;9.194;2023-05-07T14:27:19;25.60;87.50
5476;DHT22;2760;50.000;9.194;2023-05-07T14:29:46;25.70;87.00
5476;DHT22;2760;50.000;9.194;2023-05-07T14:32:16;25.50;87.00
5476;DHT22;2760;50.000;9.194;2023-05-07T14:34:43;25.30;87.60
5476;DHT22;2760;50.000;9.194;2023-05-07T14:37:11;25.20;87.70
5476;DHT22;2760;50.000;9.194;2023-05-07T14:39:38;24.50;87.10
5476;DHT22;2760;50.000;9.194;2023-05-07T14:42:05;24.80;88.50
5476;DHT22;2760;50.000;9.194;2023-05-07T14:44:34;24.90;88.30
5476;DHT22;2760;50.000;9.194;2023-05-07T14:47:01;25.10;87.40
5476;DHT22;2760;50.000;9.194;2023-05-07T14:49:28;25.20;88.20
5476;DHT22;2760;50.000;9.194;2023-05-07T14:51:57;24.90;87.60
5476;DHT22;2760;50.000;9.194;2023-05-07T14:56:52;24.80;88.30
5476;DHT22;2760;50.000;9.194;2023-05-07T14:59:19;24.70;89.60
5476;DHT22;2760;50.000;9.194;2023-05-07T15:01:48;24.50;90.30
5476;DHT22;2760;50.000;9.194;2023-05-07T15:04:15;24.60;90.40
5476;DHT22;2760;50.000;9.194;2023-05-07T15:06:42;24.60;90.60
5476;DHT22;2760;50.000;9.194;2023-05-07T15:09:09;24.70;90.40
5476;DHT22;2760;50.000;9.194;2023-05-07T15:11:36;24.60;90.50
5476;DHT22;2760;50.000;9.194;2023-05-07T15:14:04;24.80;90.90
5476;DHT22;2760;50.000;9.194;2023-05-07T15:16:30;24.80;90.40
5476;DHT22;2760;50.000;9.194;2023-05-07T15:18:59;24.60;90.20
5476;DHT22;2760;50.000;9.194;2023-05-07T15:21:26;23.80;90.50
5476;DHT22;2760;50.000;9.194;2023-05-07T15:23:53;24.30;90.70
5476;DHT22;2760;50.000;9.194;2023-05-07T15:26:20;24.30;90.90
5476;DHT22;2760;50.000;9.194;2023-05-07T15:28:47;24.60;90.90
5476;DHT22;2760;50.000;9.194;2023-05-07T15:31:16;24.40;90.40
5476;DHT22;2760;50.000;9.194;2023-05-07T15:33:43;24.40;90.40
5476;DHT22;2760;50.000;9.194;2023-05-07T15:36:12;24.30;90.50
5476;DHT22;2760;50.000;9.194;2023-05-07T15:38:39;24.30;90.70
5476;DHT22;2760;50.000;9.194;2023-05-07T15:41:06;24.30;90.80
5476;DHT22;2760;50.000;9.194;2023-05-07T15:43:44;24.20;90.70
5476;DHT22;2760;50.000;9.194;2023-05-07T15:46:12;24.20;91.00
5476;DHT22;2760;50.000;9.194;2023-05-07T15:48:46;24.20;91.10
5476;DHT22;2760;50.000;9.194;2023-05-07T15:51:15;24.00;91.20
5476;DHT22;2760;50.000;9.194;2023-05-07T15:53:42;24.10;90.90
5476;DHT22;2760;50.000;9.194;2023-05-07T15:56:09;23.90;91.00
5476;DHT22;2760;50.000;9.194;2023-05-07T15:58:36;23.90;91.30
5476;DHT22;2760;50.000;9.194;2023-05-07T16:01:04;23.90;91.20
5476;DHT22;2760;50.000;9.194;2023-05-07T16:03:31;23.90;91.10
5476;DHT22;2760;50.000;9.194;2023-05-07T16:05:58;23.80;91.30
5476;DHT22;2760;50.000;9.194;2023-05-07T16:08:27;23.70;91.30
5476;DHT22;2760;50.000;9.194;2023-05-07T16:10:54;23.70;91.30
5476;DHT22;2760;50.000;9.194;2023-05-07T16:13:21;23.70;91.70
5476;DHT22;2760;50.000;9.194;2023-05-07T16:15:49;23.70;91.20
5476;DHT22;2760;50.000;9.194;2023-05-07T16:18:16;23.50;91.10
5476;DHT22;2760;50.000;9.194;2023-05-07T16:20:44;23.50;91.00
5476;DHT22;2760;50.000;9.194;2023-05-07T16:23:11;23.40;91.00
5476;DHT22;2760;50.000;9.194;2023-05-07T16:25:39;23.30;91.00
5476;DHT22;2760;50.000;9.194;2023-05-07T16:28:06;23.50;91.00
5476;DHT22;2760;50.000;9.194;2023-05-07T16:30:33;23.20;91.30
5476;DHT22;2760;50.000;9.194;2023-05-07T16:33:00;23.30;91.10
5476;DHT22;2760;50.000;9.194;2023-05-07T16:35:27;23.30;91.50
5476;DHT22;2760;50.000;9.194;2023-05-07T16:37:54;23.20;90.90
5476;DHT22;2760;50.000;9.194;2023-05-07T16:40:21;23.30;91.20
5476;DHT22;2760;50.000;9.194;2023-05-07T16:42:52;23.20;91.60
5476;DHT22;2760;50.000;9.194;2023-05-07T16:45:22;23.30;91.20
5476;DHT22;2760;50.000;9.194;2023-05-07T16:47:49;23.30;91.10
5476;DHT22;2760;50.000;9.194;2023-05-07T16:50:16;23.20;91.20
5476;DHT22;2760;50.000;9.194;2023-05-07T16:52:43;23.20;91.00
5476;DHT22;2760;50.000;9.194;2023-05-07T16:55:10;23.30;91.40
5476;DHT22;2760;50.000;9.194;2023-05-07T16:57:37;23.00;91.10
5476;DHT22;2760;50.000;9.194;2023-05-07T17:00:07;21.20;90.30
5476;DHT22;2760;50.000;9.194;2023-05-07T17:02:36;22.90;91.30
5476;DHT22;2760;50.000;9.194;2023-05-07T17:05:03;22.90;91.70